Beamsville, Canada
Current Conditions -  °F | °C
As of 7:00 AM on Wednesday 28 Jan 2015 (Local Time) from CYSN Reporting Station
Clear Clear  
Wind Chill: -8°   Ceiling: Unl
Heat Index:   Visibility: 15mi
Dew Point:   Wind: 8mph
Humidity: 78%   Direction: 210°SSW
Pressure: 30.26"   Gusts: NA
Location:  43.16°N, 79.48°W
Report Text: CYSN 281200Z 21007KT 15SM SKC M15/M18 A3026 RMK SLP254
Loading
Personal Weather Stations






























Interactive Weather Map New forecast layout! Learn more

10-Day Weather Forecast

Advertisements
Track Severe Weather on mobile